KVJI/VJI METAR and TAF weather

Enter ICAO airport designator
Station Type Date Time Source
KVJI METAR 2022/01/18 06:15 UTC NOAA

KVJI 180615Z AUTO 29010KT 10SM OVC013 M03/M05 A2998 RMK AO2 T10351049


Station Type Date Time Source
KVJI Decoded METAR 2022/01/18 06:15 UTC NOAA

Abingdon, VA, United States (KVJI) 36-41N 082-02W
Jan 18, 2022 - 01:15 AM EST / 2022.01.18 0615 UTC
Wind: from the WNW (290 degrees) at 12 MPH (10 KT):0
Visibility: 10 mile(s):0
Sky conditions: overcast
Temperature: 25.7 F (-3.5 C)
Windchill: 14 F (-10 C):1
Dew Point: 23.2 F (-4.9 C)
Relative Humidity: 90%
Pressure (altimeter): 29.98 in. Hg (1015 hPa)
ob: KVJI 180615Z AUTO 29010KT 10SM OVC013 M03/M05 A2998 RMK AO2 T10351049
cycle: 6

Station Type Date Time Source
KVJI TAF UTC NOAA

Error!

Example: see airport list